Weather at Jw Airport

Public forecast

Using degrees Fahrenheit for public forecast. Weather courtesy of forecast.io.

Closest aviation weather report (METAR) to Jw Airport

Closest report is Fort Worth Alliance Airport, 7.5 nm (13.9 km) SSE. Retrieved 2020/11/25 11:53 UTC (1 hour ago):

KAFW 251153Z 24007KT 10SM CLR 07/02 A3002 RMK AO2 SLP164 70039 T00670022 10133 20067 51012

Closest aviation forecast (TAF) to Jw Airport

Closest forecast is Fort Worth Alliance Airport, 7.5 nm (13.9 km) SSE. Retrieved 2020/11/25 12:22 UTC (34 minutes ago):

TAF KAFW 251120Z 2512/2612 31009KT P6SM FEW250 FM252300 VRB02KT P6SM SKC FM260400 15005KT P6SM FEW250